Airfield :
LOGIN :

Register | Disclaimer

   EN    FR    IT 

 










Legend :    VFR   Marginal VFR   IFR   Intensive IFR   Very Intensive IFR
Visi :
Ceiling :
>= 8 km
>= 3000ft
5 to 8 km
1000 to 3000 ft
1500m to 5 km
500 to 1000 ft
800 to 1500m
200 to 500 ft
< 800m
< 200 ft
Symbols :   Thunderstorms  Fog  Heavy snow  Heavy precipitations  Wind > 20 kt
SIGMETs :     Misc.  Thunderstorms  Icing  Turbulence  Mountain Waves  Volcanic Ashes







- Airport Elevation : 1249 ft


ETSN - Neuburg AB

CURRENT METAR :
  • 190236Z 24009KT 7000 -RASN BKN013 BKN050 03/01 Q1015 GRN

EXPIRED METARs :
  • 190220Z 24010G20KT 6000 -RASN FEW007 SCT013 BKN055 02/00 Q1015 RERASN WHT
  • 190215Z 24010KT 6000 -RASN FEW007 BKN013 02/00 Q1015 GRN
  • 190205Z 24011KT 4500 RASN BR FEW007 BKN012 02/00 Q1015 GRN
  • 190201Z 24011KT 7000 -SN BKN013 BKN030 03/00 Q1015 GRN
  • 190120Z 25014KT 9999 -SN BKN048 03/M01 Q1015 BLU
  • 190020Z 24010KT 9999 FEW040 SCT075 OVC110 04/M01 Q1016 BLU

TAF TAF ETSN
Valid from the 19 at 03:00 until the 19 at 12:00 UTC


190200Z 1903/1912 25010KT 9999 NSW SCT020 BKN030
TEMPO 1903/1912 28012G22KT 4000 RASN BKN010 OVC030 BY ETGL
No reported NOTAMs for that airfield.



MET'MAP, your aeronautical weather chart ! - Copyright ORBIFLY December 2007 - Disclaimer

ORBIFLY MET'MAP TEAM :

Programming & Development : Alexandra Zaïnal
Concept & Development : Baudouin d'Aumeries
Co-Development & Prog : Marc-Olivier Méhu
Technical & hardware support : Manuel Goepfert

Contact : metmap@orbifly.com




SOURCES & CREDITS :

   NOAA